createdAt,value
2023-02-23T00:00:28.372Z,7.20
2023-02-23T00:05:35.857Z,7.18
2023-02-23T00:10:39.067Z,7.25
2023-02-23T00:15:40.990Z,6.40
2023-02-23T00:20:48.553Z,7.30
2023-02-23T00:25:50.376Z,6.43
2023-02-23T00:30:52.615Z,7.13
2023-02-23T00:35:55.603Z,7.60
2023-02-23T00:40:57.395Z,6.70
2023-02-23T00:45:59.262Z,7.03
2023-02-23T00:51:05.946Z,6.40
2023-02-23T00:56:12.127Z,7.07
2023-02-23T01:01:15.142Z,6.78
2023-02-23T01:06:17.939Z,6.05
2023-02-23T01:11:23.177Z,6.25
2023-02-23T01:16:28.420Z,7.03
2023-02-23T01:21:33.098Z,7.03
2023-02-23T01:26:38.054Z,6.72
2023-02-23T01:31:43.478Z,6.78
2023-02-23T01:36:45.624Z,7.50
2023-02-23T01:41:48.669Z,6.95
2023-02-23T01:46:50.675Z,6.18
2023-02-23T01:52:15.994Z,6.28
2023-02-23T01:57:22.247Z,6.28
2023-02-23T02:02:33.526Z,6.75
2023-02-23T02:07:39.742Z,6.57
2023-02-23T02:12:44.924Z,6.10
2023-02-23T02:18:09.571Z,6.95
2023-02-23T02:23:42.341Z,6.93
2023-02-23T02:28:59.694Z,6.57
2023-02-23T02:34:02.648Z,6.47
2023-02-23T02:39:35.977Z,6.82
2023-02-23T02:45:07.763Z,6.55
2023-02-23T02:50:24.879Z,6.20
2023-02-23T02:55:34.139Z,7.45
2023-02-23T03:00:56.194Z,7.68
2023-02-23T03:06:17.887Z,6.78
2023-02-23T03:11:38.197Z,7.35
2023-02-23T03:17:23.491Z,6.60
2023-02-23T03:22:53.436Z,7.53
2023-02-23T03:28:43.391Z,7.05
2023-02-23T03:34:15.034Z,8.30
2023-02-23T03:39:49.833Z,7.40
2023-02-23T03:45:13.132Z,7.00
2023-02-23T03:50:40.521Z,6.93
2023-02-23T03:56:06.267Z,6.93
2023-02-23T04:01:29.015Z,6.85
2023-02-23T04:06:54.495Z,7.65
2023-02-23T04:12:30.177Z,7.13
2023-02-23T04:17:32.939Z,9.05
2023-02-23T04:22:35.630Z,7.13
2023-02-23T04:27:37.574Z,7.32
2023-02-23T04:32:39.422Z,8.13
2023-02-23T04:37:41.535Z,8.00
2023-02-23T04:42:43.441Z,8.43
2023-02-23T04:47:45.789Z,6.13
2023-02-23T04:52:47.852Z,7.80
2023-02-23T04:57:49.832Z,7.05
2023-02-23T05:02:51.732Z,7.35
2023-02-23T05:07:55.163Z,7.35
2023-02-23T05:12:58.417Z,6.93
2023-02-23T05:18:00.440Z,7.57
2023-02-23T05:23:02.338Z,6.72
2023-02-23T05:28:04.888Z,7.28
2023-02-23T05:33:06.754Z,8.15
2023-02-23T05:38:08.597Z,7.60
2023-02-23T05:43:10.554Z,9.02
2023-02-23T05:48:13.658Z,11.50
2023-02-23T05:53:15.613Z,14.10
2023-02-23T05:58:17.428Z,16.30
2023-02-23T06:03:19.538Z,14.75
2023-02-23T06:08:21.895Z,15.85
2023-02-23T06:13:23.933Z,13.30
2023-02-23T06:18:27.267Z,11.13
2023-02-23T06:23:30.370Z,10.65
2023-02-23T06:28:32.402Z,8.25
2023-02-23T06:33:34.291Z,8.60
2023-02-23T06:38:37.624Z,9.90
2023-02-23T06:43:39.700Z,10.23
2023-02-23T06:48:41.574Z,8.88
2023-02-23T06:53:43.324Z,8.85
2023-02-23T06:58:46.751Z,8.95
2023-02-23T07:03:48.811Z,9.15
2023-02-23T07:08:50.711Z,8.35
2023-02-23T07:13:52.647Z,9.75
2023-02-23T07:18:55.707Z,8.82
2023-02-23T07:23:58.339Z,9.35
2023-02-23T07:29:00.767Z,8.63
2023-02-23T07:34:02.669Z,8.73
2023-02-23T07:39:05.251Z,8.15
2023-02-23T07:44:07.347Z,8.73
2023-02-23T07:49:09.547Z,8.40
2023-02-23T07:54:11.473Z,9.00
2023-02-23T08:00:37.162Z,9.82
2023-02-23T08:05:40.147Z,9.45
2023-02-23T08:10:42.252Z,10.68
2023-02-23T08:15:44.236Z,12.38
2023-02-23T08:20:47.025Z,10.52
2023-02-23T08:25:49.133Z,9.32
2023-02-23T08:30:51.066Z,10.85
2023-02-23T08:35:53.737Z,9.95
2023-02-23T08:40:55.570Z,10.57
2023-02-23T08:45:57.738Z,10.23
2023-02-23T08:51:00.051Z,9.45
2023-02-23T08:56:06.154Z,10.27
2023-02-23T09:01:08.641Z,9.15
2023-02-23T09:06:15.394Z,10.05
2023-02-23T09:11:17.868Z,10.63
2023-02-23T09:16:20.467Z,10.45
2023-02-23T09:21:25.506Z,9.75
2023-02-23T09:26:29.593Z,10.90
2023-02-23T09:31:31.507Z,10.27
2023-02-23T09:36:33.470Z,11.43
2023-02-23T09:41:35.440Z,9.68
2023-02-23T09:46:53.868Z,10.18
2023-02-23T09:51:59.210Z,10.35
2023-02-23T09:57:04.961Z,9.18
2023-02-23T10:02:21.486Z,9.75
2023-02-23T10:07:53.004Z,9.85
2023-02-23T10:13:59.231Z,10.23
2023-02-23T10:19:08.105Z,9.10
2023-02-23T10:24:18.152Z,10.55
2023-02-23T10:29:39.550Z,8.95
2023-02-23T10:34:43.014Z,9.25
2023-02-23T10:39:45.329Z,9.05
2023-02-23T10:44:48.224Z,10.70
2023-02-23T10:49:52.495Z,8.25
2023-02-23T10:54:55.450Z,9.32
2023-02-23T11:00:07.132Z,9.77
2023-02-23T11:05:51.450Z,8.30
2023-02-23T11:11:02.420Z,7.50
2023-02-23T11:16:14.098Z,8.60
2023-02-23T11:21:27.136Z,9.18
2023-02-23T11:26:36.239Z,7.32
2023-02-23T11:31:40.872Z,7.95
2023-02-23T11:36:42.950Z,7.53
2023-02-23T11:41:44.768Z,7.03
2023-02-23T11:46:47.073Z,7.82
2023-02-23T11:51:52.317Z,7.50
2023-02-23T11:56:55.599Z,7.55
2023-02-23T12:02:19.272Z,6.95
2023-02-23T12:07:31.665Z,7.38
2023-02-23T12:12:51.112Z,7.10
2023-02-23T12:18:04.779Z,7.15
2023-02-23T12:23:12.586Z,7.25
2023-02-23T12:28:27.240Z,7.95
2023-02-23T12:33:39.406Z,7.80
2023-02-23T12:39:10.098Z,7.78
2023-02-23T12:44:34.583Z,7.18
2023-02-23T12:49:39.760Z,7.50
2023-02-23T12:54:44.036Z,6.95
2023-02-23T12:59:51.778Z,7.43
2023-02-23T13:05:27.098Z,6.85
2023-02-23T13:10:46.302Z,7.35
2023-02-23T13:15:59.393Z,6.80
2023-02-23T13:21:04.360Z,6.72
2023-02-23T13:26:10.986Z,6.95
2023-02-23T13:31:41.311Z,7.35
2023-02-23T13:36:46.012Z,6.57
2023-02-23T13:42:16.290Z,7.90
2023-02-23T13:47:36.476Z,5.82
2023-02-23T13:52:42.605Z,7.38
2023-02-23T13:57:44.416Z,6.45
2023-02-23T14:02:46.966Z,7.18
2023-02-23T14:08:04.740Z,7.30
2023-02-23T14:13:18.264Z,6.60
2023-02-23T14:18:26.305Z,6.13
2023-02-23T14:23:50.708Z,6.45
2023-02-23T14:29:26.020Z,6.65
2023-02-23T14:34:54.197Z,7.00
2023-02-23T14:40:02.005Z,7.07
2023-02-23T14:50:31.492Z,5.95
2023-02-23T14:55:37.897Z,6.55
2023-02-23T15:00:42.668Z,7.10
2023-02-23T15:05:52.860Z,7.40
2023-02-23T15:11:13.626Z,7.32
2023-02-23T15:16:23.194Z,7.18
2023-02-23T15:21:25.164Z,7.93
2023-02-23T15:26:36.865Z,8.30
2023-02-23T15:31:41.102Z,8.68
2023-02-23T15:36:47.203Z,10.05
2023-02-23T15:41:50.007Z,10.52
2023-02-23T15:47:20.663Z,9.82
2023-02-23T15:52:25.099Z,9.38
2023-02-23T15:57:31.973Z,11.80
2023-02-23T16:02:36.878Z,10.60
2023-02-23T16:07:43.569Z,10.02
2023-02-23T16:12:49.919Z,9.93
2023-02-23T16:18:02.639Z,10.02
2023-02-23T16:23:06.774Z,10.35
2023-02-23T16:28:12.983Z,14.23
2023-02-23T16:33:24.350Z,9.93
2023-02-23T16:38:38.092Z,10.60
2023-02-23T16:43:39.945Z,9.30
2023-02-23T16:48:41.773Z,9.98
2023-02-23T16:53:44.792Z,11.40
2023-02-23T16:58:49.742Z,11.55
2023-02-23T17:03:54.069Z,12.77
2023-02-23T17:08:58.918Z,12.00
2023-02-23T17:14:01.036Z,13.57
2023-02-23T17:19:02.933Z,13.77
2023-02-23T17:24:05.120Z,12.68
2023-02-23T17:29:07.035Z,11.93
2023-02-23T17:34:08.977Z,13.10
2023-02-23T17:39:14.318Z,13.82
2023-02-23T17:44:16.138Z,13.57
2023-02-23T17:49:18.257Z,15.70
2023-02-23T17:54:20.264Z,18.20
2023-02-23T17:59:22.147Z,15.35
2023-02-23T18:04:24.344Z,15.75
2023-02-23T18:09:26.566Z,14.95
2023-02-23T18:14:28.721Z,13.25
2023-02-23T18:19:31.324Z,14.02
2023-02-23T18:24:33.625Z,12.90
2023-02-23T18:29:36.686Z,12.95
2023-02-23T18:34:38.585Z,14.93
2023-02-23T18:39:40.498Z,23.52
2023-02-23T18:44:42.672Z,15.38
2023-02-23T18:49:44.797Z,15.85
2023-02-23T18:54:48.851Z,15.40
2023-02-23T18:59:50.754Z,14.25
2023-02-23T19:04:52.554Z,13.88
2023-02-23T19:09:54.512Z,14.05
2023-02-23T19:14:59.740Z,14.98
2023-02-23T19:20:01.965Z,18.25
2023-02-23T19:25:04.063Z,12.68
2023-02-23T19:30:10.107Z,13.85
2023-02-23T19:35:14.973Z,15.02
2023-02-23T19:40:20.970Z,14.18
2023-02-23T19:45:24.959Z,14.27
2023-02-23T19:50:26.762Z,13.20
2023-02-23T19:55:28.529Z,12.80
2023-02-23T20:00:31.468Z,13.52
2023-02-23T20:05:42.454Z,14.18
2023-02-23T20:10:45.520Z,13.32
2023-02-23T20:15:47.425Z,13.68
2023-02-23T20:20:49.376Z,12.93
2023-02-23T20:25:52.615Z,12.02
2023-02-23T20:30:54.720Z,11.02
2023-02-23T20:35:57.441Z,10.82
2023-02-23T20:41:03.089Z,9.73
2023-02-23T20:46:06.394Z,10.55
2023-02-23T20:51:13.091Z,9.63
2023-02-23T20:56:17.871Z,8.20
2023-02-23T21:01:23.828Z,8.45
2023-02-23T21:06:27.875Z,9.93
2023-02-23T21:11:31.402Z,9.02
2023-02-23T21:16:33.313Z,9.30
2023-02-23T21:21:44.379Z,9.82
2023-02-23T21:26:46.663Z,8.95
2023-02-23T21:31:52.335Z,11.48
2023-02-23T21:36:59.370Z,9.65
2023-02-23T21:42:01.299Z,10.90
2023-02-23T21:47:07.147Z,12.50
2023-02-23T21:52:10.022Z,12.05
2023-02-23T21:57:11.873Z,12.32
2023-02-23T22:02:13.734Z,13.23
2023-02-23T22:07:17.000Z,13.63
2023-02-23T22:12:18.872Z,14.63
2023-02-23T22:17:20.804Z,15.93
2023-02-23T22:22:23.144Z,18.75
2023-02-23T22:27:25.091Z,18.10
2023-02-23T22:32:27.430Z,18.83
2023-02-23T22:37:31.695Z,19.60
2023-02-23T22:42:35.520Z,18.75
2023-02-23T22:47:37.696Z,14.90
2023-02-23T22:52:40.968Z,13.88
2023-02-23T22:57:43.166Z,12.90
2023-02-23T23:02:45.117Z,12.40
2023-02-23T23:07:47.729Z,12.45
2023-02-23T23:12:49.830Z,14.10
2023-02-23T23:17:51.719Z,12.27
2023-02-23T23:22:53.692Z,13.38
2023-02-23T23:27:55.825Z,15.00
2023-02-23T23:32:58.095Z,13.95
2023-02-23T23:38:03.158Z,14.55
2023-02-23T23:43:07.904Z,17.85
2023-02-23T23:48:09.941Z,15.85
2023-02-23T23:53:11.929Z,15.25
2023-02-23T23:58:18.450Z,15.75
